createdAt,value
2019-05-28T00:00:26.635Z,9.20
2019-05-28T00:05:35.352Z,8.87
2019-05-28T00:10:44.227Z,10.63
2019-05-28T00:15:53.022Z,11.50
2019-05-28T00:21:01.627Z,10.67
2019-05-28T00:26:10.451Z,10.03
2019-05-28T00:31:19.197Z,10.23
2019-05-28T00:36:30.042Z,11.27
2019-05-28T00:41:38.697Z,10.10
2019-05-28T00:46:47.538Z,9.93
2019-05-28T00:51:56.365Z,9.97
2019-05-28T00:57:05.314Z,10.67
2019-05-28T01:02:14.174Z,10.50
2019-05-28T01:07:22.917Z,10.40
2019-05-28T01:12:31.809Z,9.10
2019-05-28T01:17:40.602Z,9.63
2019-05-28T01:22:49.371Z,11.80
2019-05-28T01:27:58.265Z,10.00
2019-05-28T01:33:07.024Z,9.47
2019-05-28T01:38:18.703Z,9.87
2019-05-28T01:43:27.372Z,10.57
2019-05-28T01:48:36.243Z,11.07
2019-05-28T01:53:45.137Z,10.20
2019-05-28T01:58:53.985Z,10.93
2019-05-28T02:04:02.666Z,12.50
2019-05-28T02:09:11.490Z,11.40
2019-05-28T02:14:20.214Z,12.20
2019-05-28T02:19:29.084Z,11.23
2019-05-28T02:24:37.950Z,12.10
2019-05-28T02:29:46.672Z,13.17
2019-05-28T02:34:55.504Z,12.17
2019-05-28T02:40:04.603Z,13.33
2019-05-28T02:45:13.378Z,13.57
2019-05-28T02:51:01.810Z,12.40
2019-05-28T02:56:12.366Z,12.77
2019-05-28T03:01:21.193Z,13.30
2019-05-28T03:06:30.099Z,12.63
2019-05-28T03:11:38.689Z,13.80
2019-05-28T03:16:47.700Z,13.70
2019-05-28T03:21:57.499Z,13.57
2019-05-28T03:27:06.311Z,14.60
2019-05-28T03:32:15.065Z,14.33
2019-05-28T03:37:24.666Z,13.40
2019-05-28T03:42:33.294Z,15.53
2019-05-28T03:47:42.000Z,14.90
2019-05-28T03:52:50.919Z,14.57
2019-05-28T03:57:59.579Z,15.50
2019-05-28T04:03:08.495Z,14.77
2019-05-28T04:08:17.255Z,14.77
2019-05-28T04:13:26.201Z,14.80
2019-05-28T04:18:35.012Z,14.30
2019-05-28T04:23:43.783Z,15.03
2019-05-28T04:28:52.642Z,16.23
2019-05-28T04:34:01.535Z,14.10
2019-05-28T04:39:10.397Z,14.53
2019-05-28T04:44:19.279Z,13.93
2019-05-28T04:49:28.721Z,12.63
2019-05-28T04:54:37.639Z,13.97
2019-05-28T04:59:46.377Z,12.77
2019-05-28T05:04:55.240Z,11.17
2019-05-28T05:10:04.190Z,10.33
2019-05-28T05:15:12.887Z,9.77
2019-05-28T05:20:21.751Z,8.70
2019-05-28T05:25:30.728Z,6.80
2019-05-28T05:30:39.641Z,7.13
2019-05-28T05:35:48.362Z,7.93
2019-05-28T05:40:57.228Z,6.10
2019-05-28T05:46:06.130Z,5.07
2019-05-28T05:51:14.943Z,5.83
2019-05-28T05:56:23.808Z,5.10
2019-05-28T06:01:32.644Z,5.57
2019-05-28T06:06:41.492Z,4.83
2019-05-28T06:11:50.317Z,5.90
2019-05-28T06:16:59.222Z,5.80
2019-05-28T06:22:08.223Z,5.73
2019-05-28T06:27:19.374Z,7.03
2019-05-28T06:32:25.684Z,5.87
2019-05-28T06:37:34.604Z,5.57
2019-05-28T06:42:43.538Z,7.47
2019-05-28T06:47:52.178Z,6.57
2019-05-28T06:53:00.834Z,9.03
2019-05-28T06:58:09.530Z,4.23
2019-05-28T07:03:18.491Z,5.40
2019-05-28T07:08:27.154Z,5.73
2019-05-28T07:13:36.096Z,7.80
2019-05-28T07:18:44.958Z,5.60
2019-05-28T07:23:53.703Z,5.40
2019-05-28T07:29:02.376Z,7.07
2019-05-28T07:34:11.021Z,6.87
2019-05-28T07:39:20.106Z,6.53
2019-05-28T07:44:28.843Z,5.90
2019-05-28T07:49:37.754Z,6.23
2019-05-28T07:54:46.648Z,7.73
2019-05-28T07:59:55.413Z,7.20
2019-05-28T08:05:04.655Z,6.57
2019-05-28T08:10:13.608Z,5.30
2019-05-28T08:15:22.579Z,5.60
2019-05-28T08:20:31.346Z,5.77
2019-05-28T08:25:47.421Z,6.00
2019-05-28T08:30:49.150Z,7.17
2019-05-28T08:35:57.905Z,6.97
2019-05-28T08:41:06.809Z,6.97
2019-05-28T08:46:15.792Z,8.80
2019-05-28T08:51:24.672Z,8.23
2019-05-28T08:56:33.462Z,6.67
2019-05-28T09:01:42.332Z,6.63
2019-05-28T09:06:51.110Z,7.13
2019-05-28T09:11:59.975Z,6.67
2019-05-28T09:17:08.734Z,6.53
2019-05-28T09:22:25.589Z,7.10
2019-05-28T09:27:26.224Z,6.77
2019-05-28T09:32:34.981Z,6.23
2019-05-28T09:37:43.739Z,7.40
2019-05-28T09:42:52.442Z,6.10
2019-05-28T09:48:01.320Z,6.70
2019-05-28T09:53:10.208Z,6.83
2019-05-28T09:58:19.031Z,6.00
2019-05-28T10:03:27.690Z,7.43
2019-05-28T10:08:36.403Z,6.70
2019-05-28T10:13:45.118Z,5.77
2019-05-28T10:18:53.910Z,4.57
2019-05-28T10:24:02.862Z,3.87
2019-05-28T10:29:11.574Z,4.40
2019-05-28T10:34:20.683Z,3.17
2019-05-28T10:39:29.478Z,6.03
2019-05-28T10:44:38.375Z,3.63
2019-05-28T10:49:50.747Z,3.90
2019-05-28T10:54:56.038Z,1.53
2019-05-28T11:00:05.204Z,2.77
2019-05-28T11:05:14.107Z,1.77
2019-05-28T11:10:24.694Z,3.23
2019-05-28T11:15:31.835Z,2.37
2019-05-28T11:20:40.585Z,2.57
2019-05-28T11:25:49.487Z,1.13
2019-05-28T11:30:58.137Z,2.93
2019-05-28T11:36:06.746Z,2.77
2019-05-28T11:41:15.488Z,2.63
2019-05-28T11:46:24.327Z,3.60
2019-05-28T11:51:33.086Z,4.37
2019-05-28T11:56:41.789Z,7.90
2019-05-28T12:01:50.613Z,4.33
2019-05-28T12:06:59.405Z,2.43
2019-05-28T12:12:08.069Z,1.70
2019-05-28T12:17:16.978Z,2.80
2019-05-28T12:22:25.698Z,1.40
2019-05-28T12:27:34.473Z,1.67
2019-05-28T12:32:43.238Z,3.43
2019-05-28T12:37:52.205Z,1.20
2019-05-28T12:43:01.044Z,3.50
2019-05-28T12:48:12.942Z,1.60
2019-05-28T12:53:18.871Z,3.03
2019-05-28T12:58:41.694Z,2.20
2019-05-28T13:03:36.659Z,3.03
2019-05-28T13:08:45.574Z,2.63
2019-05-28T13:13:54.423Z,2.50
2019-05-28T13:19:03.480Z,4.53
2019-05-28T13:24:12.303Z,5.50
2019-05-28T13:29:21.096Z,5.47
2019-05-28T13:34:29.772Z,6.03
2019-05-28T13:39:38.593Z,4.63
2019-05-28T13:44:47.384Z,5.70
2019-05-28T13:49:56.230Z,6.20
2019-05-28T13:55:05.048Z,6.60
2019-05-28T14:00:14.243Z,5.87
2019-05-28T14:05:23.103Z,5.27
2019-05-28T14:10:32.153Z,4.77
2019-05-28T14:15:40.945Z,6.17
2019-05-28T14:20:49.709Z,7.00
2019-05-28T14:25:58.562Z,5.53
2019-05-28T14:31:07.455Z,6.53
2019-05-28T14:36:16.203Z,5.67
2019-05-28T14:41:25.015Z,4.20
2019-05-28T14:46:34.015Z,4.77
2019-05-28T14:51:42.774Z,5.93
2019-05-28T14:56:51.676Z,4.37
2019-05-28T15:02:00.524Z,4.33
2019-05-28T15:07:09.382Z,5.73
2019-05-28T15:12:18.149Z,4.80
2019-05-28T15:17:27.087Z,6.67
2019-05-28T15:22:35.962Z,5.60
2019-05-28T15:27:44.682Z,7.40
2019-05-28T15:32:53.462Z,6.23
2019-05-28T15:38:02.176Z,3.93
2019-05-28T15:43:11.139Z,2.97
2019-05-28T15:48:20.005Z,3.50
2019-05-28T15:53:28.943Z,4.30
2019-05-28T15:58:37.665Z,3.27
2019-05-28T16:03:46.513Z,3.87
2019-05-28T16:08:55.360Z,3.73
2019-05-28T16:14:04.360Z,4.90
2019-05-28T16:19:13.121Z,3.30
2019-05-28T16:24:22.215Z,3.10
2019-05-28T16:29:31.010Z,4.87
2019-05-28T16:34:40.008Z,4.67
2019-05-28T16:39:49.197Z,4.77
2019-05-28T16:44:58.081Z,6.23
2019-05-28T16:50:07.099Z,5.27
2019-05-28T16:55:15.885Z,6.13
2019-05-28T17:00:24.790Z,4.20
2019-05-28T17:05:33.711Z,4.23
2019-05-28T17:10:42.594Z,4.37
2019-05-28T17:15:51.477Z,4.37
2019-05-28T17:21:00.486Z,5.10
2019-05-28T17:26:09.291Z,4.83
2019-05-28T17:31:18.292Z,3.63
2019-05-28T17:36:27.146Z,3.73
2019-05-28T17:41:36.226Z,4.17
2019-05-28T17:46:44.892Z,4.90
2019-05-28T17:51:54.071Z,5.20
2019-05-28T17:57:03.154Z,5.20
2019-05-28T18:02:12.236Z,3.97
2019-05-28T18:07:21.051Z,4.17
2019-05-28T18:12:30.003Z,4.17
2019-05-28T18:17:39.373Z,3.50
2019-05-28T18:22:48.306Z,5.47
2019-05-28T18:27:57.152Z,3.23
2019-05-28T18:33:06.026Z,3.73
2019-05-28T18:38:15.684Z,5.83
2019-05-28T18:43:24.448Z,6.40
2019-05-28T18:48:33.160Z,4.83
2019-05-28T18:53:41.954Z,3.87
2019-05-28T18:58:50.798Z,4.67
2019-05-28T19:03:59.654Z,4.57
2019-05-28T19:09:11.517Z,6.27
2019-05-28T19:14:17.789Z,4.80
2019-05-28T19:19:26.811Z,5.87
2019-05-28T19:24:35.817Z,4.33
2019-05-28T19:29:44.637Z,4.70
2019-05-28T19:34:53.864Z,6.83
2019-05-28T19:40:03.702Z,5.77
2019-05-28T19:45:12.659Z,4.30
2019-05-28T19:50:21.432Z,7.00
2019-05-28T19:55:30.354Z,5.80
2019-05-28T20:00:39.339Z,4.87
2019-05-28T20:05:48.232Z,4.70
2019-05-28T20:10:57.251Z,5.17
2019-05-28T20:16:06.019Z,5.87
2019-05-28T20:21:14.980Z,5.67
2019-05-28T20:26:24.371Z,5.50
2019-05-28T20:31:33.420Z,7.13
2019-05-28T20:36:42.396Z,5.97
2019-05-28T20:41:51.226Z,6.73
2019-05-28T20:47:00.484Z,5.60
2019-05-28T20:52:09.191Z,8.10
2019-05-28T20:57:17.654Z,6.77
2019-05-28T21:02:26.301Z,6.20
2019-05-28T21:07:34.943Z,6.10
2019-05-28T21:12:44.911Z,4.80
2019-05-28T21:17:53.144Z,6.97
2019-05-28T21:23:01.613Z,5.37
2019-05-28T21:28:10.449Z,5.87
2019-05-28T21:33:19.288Z,5.80
2019-05-28T21:38:28.073Z,4.73
2019-05-28T21:43:36.861Z,4.93
2019-05-28T21:48:45.579Z,4.10
2019-05-28T21:53:54.806Z,3.43
2019-05-28T21:59:03.785Z,2.27
2019-05-28T22:04:12.221Z,4.03
2019-05-28T22:09:21.008Z,4.43
2019-05-28T22:14:29.694Z,4.20
2019-05-28T22:19:38.464Z,5.30
2019-05-28T22:24:47.269Z,4.67
2019-05-28T22:29:56.486Z,3.57
2019-05-28T22:35:05.211Z,5.77
2019-05-28T22:40:14.173Z,4.00
2019-05-28T22:45:22.905Z,3.90
2019-05-28T22:50:31.745Z,5.83
2019-05-28T22:55:40.367Z,6.33
2019-05-28T23:00:49.279Z,3.93
2019-05-28T23:05:58.995Z,3.17
2019-05-28T23:11:08.001Z,4.20
2019-05-28T23:16:15.895Z,3.13
2019-05-28T23:21:24.708Z,5.07
2019-05-28T23:26:33.571Z,4.77
2019-05-28T23:31:42.468Z,5.00
2019-05-28T23:36:51.251Z,5.30
2019-05-28T23:42:00.031Z,6.10
2019-05-28T23:47:10.063Z,4.40
2019-05-28T23:52:17.525Z,4.60
2019-05-28T23:57:26.176Z,5.27
